Time;durP1;ratioP1;P1;durP2;ratioP2;P2;SDS_P1;SDS_P2;PMS_P1;PMS_P2;Temp;Humidity;BMP_temperature;BMP_pressure;BME280_temperature;BME280_humidity;BME280_pressure;Samples;Min_cycle;Max_cycle;Signal;HPM_P1;HPM_P2
2023/08/23 00:02:00;;;;;;;4.33;3.40;;;;;;;17.53;90.65;101197.91;5090811;28;20211;-82
2023/08/23 00:04:29;;;;;;;5.13;3.83;;;;;;;17.53;90.32;101200.59;5092365;28;20214;-82
2023/08/23 00:06:56;;;;;;;6.77;4.10;;;;;;;17.50;90.39;101197.31;5092717;28;20689;-81
2023/08/23 00:09:23;;;;;;;4.20;3.80;;;;;;;17.44;90.93;101193.28;5092329;28;20234;-82
2023/08/23 00:11:49;;;;;;;4.40;3.53;;;;;;;17.39;91.04;101200.03;5093974;28;20605;-81
2023/08/23 00:14:17;;;;;;;5.60;4.23;;;;;;;17.35;91.73;101203.00;5091978;28;20715;-81
2023/08/23 00:16:43;;;;;;;4.60;4.20;;;;;;;17.33;91.69;101198.72;5086728;28;20230;-81
2023/08/23 00:19:10;;;;;;;4.43;3.70;;;;;;;17.32;91.68;101205.09;5087175;28;20215;-81
2023/08/23 00:21:36;;;;;;;4.73;4.00;;;;;;;17.30;91.76;101199.81;5088470;28;20213;-80
2023/08/23 00:24:03;;;;;;;4.23;3.03;;;;;;;17.27;92.05;101197.38;5091694;28;20215;-81
2023/08/23 00:26:30;;;;;;;2.87;2.37;;;;;;;17.25;92.08;101202.03;5091963;28;20236;-81
2023/08/23 00:28:56;;;;;;;3.27;2.90;;;;;;;17.21;91.95;101197.03;5091612;28;20207;-80
2023/08/23 00:31:24;;;;;;;3.90;3.33;;;;;;;17.17;92.56;101204.50;5092108;28;20559;-81
2023/08/23 00:33:51;;;;;;;3.57;3.27;;;;;;;17.14;92.76;101203.91;5091422;28;20203;-81
2023/08/23 00:36:17;;;;;;;3.90;3.50;;;;;;;17.12;93.07;101195.09;5090736;28;20228;-80
2023/08/23 00:38:43;;;;;;;4.60;3.47;;;;;;;17.09;93.43;101193.50;5082907;28;20201;-82
2023/08/23 00:41:10;;;;;;;4.03;3.60;;;;;;;17.08;93.61;101191.81;5091292;28;20216;-82
2023/08/23 00:43:36;;;;;;;4.10;3.70;;;;;;;17.08;93.71;101191.81;5091182;28;20211;-81
2023/08/23 00:46:03;;;;;;;5.40;3.67;;;;;;;17.07;93.97;101197.31;5087330;28;20223;-81
2023/08/23 00:48:32;;;;;;;4.80;3.50;;;;;;;17.07;94.15;101191.91;5092104;28;20576;-80
2023/08/23 00:50:59;;;;;;;5.73;3.87;;;;;;;17.02;94.34;101193.16;5090971;28;20691;-80
2023/08/23 00:53:26;;;;;;;4.37;3.43;;;;;;;16.98;94.64;101198.94;5092288;28;20678;-81
2023/08/23 00:55:53;;;;;;;10.40;4.07;;;;;;;16.96;94.86;101192.81;5091331;28;20730;-81
2023/08/23 00:58:20;;;;;;;5.10;3.90;;;;;;;16.94;95.08;101197.47;5090676;28;20655;-81
2023/08/23 01:00:48;;;;;;;5.57;3.83;;;;;;;16.92;95.44;101194.88;5079616;28;20717;-81
2023/08/23 01:03:14;;;;;;;4.20;3.80;;;;;;;16.92;95.52;101200.28;5091831;28;20213;-81
2023/08/23 01:05:52;;;;;;;5.07;4.00;;;;;;;16.92;95.46;101199.41;5091479;28;20222;-81
2023/08/23 01:08:26;;;;;;;3.70;3.30;;;;;;;16.88;95.34;101193.41;5091348;28;20214;-81
2023/08/23 01:10:57;;;;;;;6.37;3.57;;;;;;;16.82;95.29;101191.25;5091469;28;20196;-81
2023/08/23 01:13:30;;;;;;;3.63;3.33;;;;;;;16.80;95.60;101189.66;5084982;28;20207;-81
2023/08/23 01:15:59;;;;;;;5.43;3.83;;;;;;;16.77;96.04;101189.91;5091837;28;20223;-81
2023/08/23 01:18:27;;;;;;;6.10;4.23;;;;;;;16.77;96.10;101192.59;5087070;28;20595;-80
2023/08/23 01:20:55;;;;;;;5.77;4.10;;;;;;;16.78;96.18;101197.00;5088802;28;20204;-81
2023/08/23 01:23:25;;;;;;;6.23;4.20;;;;;;;16.77;96.40;101189.91;5090750;28;20676;-82
2023/08/23 01:25:52;;;;;;;5.47;3.60;;;;;;;16.76;95.99;101191.72;5090796;28;20224;-81
2023/08/23 01:28:20;;;;;;;4.33;3.50;;;;;;;16.73;95.50;101193.81;5091164;28;20210;-83
2023/08/23 01:30:48;;;;;;;5.27;4.00;;;;;;;16.69;95.66;101189.66;5090112;28;20598;-83
2023/08/23 01:33:21;;;;;;;3.17;2.77;;;;;;;16.67;96.09;101182.56;5086758;28;20216;-83
2023/08/23 01:35:55;;;;;;;4.50;3.10;;;;;;;16.61;95.48;101188.41;5090286;28;20242;-83
2023/08/23 01:38:26;;;;;;;1.87;1.73;;;;;;;16.55;95.77;101190.72;5086582;28;20232;-83
2023/08/23 01:40:55;;;;;;;2.40;2.20;;;;;;;16.50;96.06;101191.09;5094338;28;20670;-81
2023/08/23 01:43:22;;;;;;;2.40;2.20;;;;;;;16.46;96.54;101188.78;5089728;28;20197;-82
2023/08/23 01:45:48;;;;;;;2.23;2.03;;;;;;;16.43;96.52;101195.25;5084078;28;20230;-82
2023/08/23 01:48:14;;;;;;;2.47;2.27;;;;;;;16.43;96.22;101189.88;5083865;28;20926;-81
2023/08/23 01:50:41;;;;;;;2.33;2.13;;;;;;;16.37;95.95;101193.03;5091252;28;20198;-82
2023/08/23 01:53:08;;;;;;;3.37;2.40;;;;;;;16.30;96.07;101181.91;5084010;28;20215;-80
2023/08/23 01:55:36;;;;;;;7.53;4.30;;;;;;;16.23;96.44;101188.75;5089397;28;20237;-81
2023/08/23 01:58:02;;;;;;;5.53;4.43;;;;;;;16.19;97.03;101195.34;5090044;28;20224;-81
2023/08/23 02:00:28;;;;;;;6.50;4.50;;;;;;;16.15;98.00;101193.00;5088971;28;20601;-81
2023/08/23 02:02:56;;;;;;;5.67;4.17;;;;;;;16.13;98.47;101195.81;5089099;28;20694;-81
2023/08/23 02:05:23;;;;;;;5.07;4.53;;;;;;;16.12;98.65;101190.59;5087420;28;20226;-81
2023/08/23 02:07:49;;;;;;;4.80;4.30;;;;;;;16.11;98.81;101191.56;5089212;28;20673;-81
2023/08/23 02:10:16;;;;;;;4.70;4.30;;;;;;;16.10;99.09;101193.38;5087844;28;20226;-80
2023/08/23 02:12:43;;;;;;;4.57;4.07;;;;;;;16.10;98.90;101195.22;5089878;28;20222;-81
2023/08/23 02:15:10;;;;;;;3.70;3.40;;;;;;;16.09;98.70;101198.88;5088855;28;20239;-84
2023/08/23 02:17:36;;;;;;;4.33;3.70;;;;;;;16.05;98.03;101205.47;5088999;28;20229;-81
2023/08/23 02:20:03;;;;;;;5.67;3.50;;;;;;;16.02;97.74;101205.69;5089592;28;20204;-81
2023/08/23 02:22:30;;;;;;;3.37;3.17;;;;;;;15.95;97.42;101206.16;5089500;28;20202;-81
2023/08/23 02:24:56;;;;;;;5.37;3.67;;;;;;;15.91;97.41;101198.47;5092038;28;20204;-79
2023/08/23 02:27:22;;;;;;;3.60;3.27;;;;;;;15.89;97.79;101205.78;5093196;28;20214;-81
2023/08/23 02:29:50;;;;;;;3.90;3.60;;;;;;;15.87;98.00;101199.69;5090683;28;20666;-81
2023/08/23 02:32:17;;;;;;;4.10;3.80;;;;;;;15.87;98.41;101200.53;5091028;28;20213;-81
2023/08/23 02:34:43;;;;;;;4.40;4.00;;;;;;;15.85;97.56;101202.47;5091963;28;20207;-82
2023/08/23 02:37:10;;;;;;;4.93;3.40;;;;;;;15.81;97.58;101201.00;5093742;28;20219;-81
2023/08/23 02:39:36;;;;;;;4.37;3.97;;;;;;;15.78;96.59;101192.31;5092648;28;20201;-81
2023/08/23 02:42:03;;;;;;;4.67;3.60;;;;;;;15.72;96.28;101201.72;5090919;28;20238;-81
2023/08/23 02:44:29;;;;;;;4.00;3.60;;;;;;;15.67;97.09;101193.13;5092253;28;20210;-81
2023/08/23 02:46:57;;;;;;;3.83;3.47;;;;;;;15.62;97.13;101187.25;5090796;28;21263;-80
2023/08/23 02:49:23;;;;;;;5.17;3.93;;;;;;;15.64;97.80;101196.03;5094835;28;20548;-81
2023/08/23 02:51:50;;;;;;;4.60;3.70;;;;;;;15.61;98.21;101188.22;5085304;28;20202;-81
2023/08/23 02:54:16;;;;;;;5.97;4.30;;;;;;;15.60;98.69;101183.81;5090780;28;20411;-81
2023/08/23 02:56:43;;;;;;;8.23;4.50;;;;;;;15.58;98.98;101186.66;5089326;28;20230;-83
2023/08/23 02:59:09;;;;;;;4.83;4.00;;;;;;;15.57;98.91;101192.13;5089380;28;20208;-82
2023/08/23 03:01:36;;;;;;;6.20;4.90;;;;;;;15.58;99.57;101193.84;5091213;28;20198;-82
2023/08/23 03:04:04;;;;;;;4.23;3.83;;;;;;;15.57;99.22;101197.50;5090138;28;20230;-80
2023/08/23 03:06:30;;;;;;;4.03;3.73;;;;;;;15.56;98.43;101190.41;5088844;28;20225;-82
2023/08/23 03:08:57;;;;;;;4.47;4.03;;;;;;;15.50;98.00;101196.22;5090990;28;20220;-82
2023/08/23 03:11:23;;;;;;;4.23;3.87;;;;;;;15.43;97.80;101187.75;5091402;28;20205;-81
2023/08/23 03:13:50;;;;;;;4.67;4.27;;;;;;;15.39;97.82;101185.44;5093724;28;20202;-80
2023/08/23 03:16:16;;;;;;;5.43;4.77;;;;;;;15.36;98.48;101178.47;5091666;28;20242;-82
2023/08/23 03:18:43;;;;;;;6.40;4.87;;;;;;;15.36;99.42;101182.97;5091263;28;20222;-80
2023/08/23 03:21:10;;;;;;;5.73;5.20;;;;;;;15.35;99.68;101182.13;5092932;28;20221;-80
2023/08/23 03:23:37;;;;;;;5.37;4.87;;;;;;;15.31;99.07;101185.13;5092964;28;20815;-80
2023/08/23 03:26:03;;;;;;;5.40;4.90;;;;;;;15.20;98.29;101192.16;5091873;28;20735;-81
2023/08/23 03:28:30;;;;;;;5.97;5.37;;;;;;;15.12;98.46;101182.97;5095904;28;20668;-80
2023/08/23 03:31:01;;;;;;;5.33;4.93;;;;;;;15.08;98.76;101185.00;5090715;28;20215;-80
2023/08/23 03:33:28;;;;;;;5.27;4.77;;;;;;;15.05;99.43;101187.09;5090626;28;20653;-81
2023/08/23 03:35:54;;;;;;;5.77;5.27;;;;;;;15.04;99.78;101183.53;5089683;28;20599;-81
2023/08/23 03:38:22;;;;;;;5.23;4.83;;;;;;;15.05;99.84;101190.59;5086569;28;20226;-81
2023/08/23 03:40:51;;;;;;;5.37;4.87;;;;;;;15.05;100.00;101185.22;5092411;28;20212;-80
2023/08/23 03:43:18;;;;;;;5.10;4.50;;;;;;;15.05;99.60;101184.41;5086398;28;20212;-81
2023/08/23 03:45:46;;;;;;;5.13;4.70;;;;;;;15.02;98.73;101184.63;5089241;28;20223;-80
2023/08/23 03:48:13;;;;;;;5.00;4.60;;;;;;;15.01;98.62;101181.06;5087860;28;20612;-80
2023/08/23 03:50:39;;;;;;;5.93;4.93;;;;;;;15.02;98.18;101182.78;5086288;28;20653;-81
2023/08/23 03:53:05;;;;;;;3.87;3.47;;;;;;;14.99;97.79;101184.84;5089019;28;20569;-82
2023/08/23 03:55:36;;;;;;;5.87;5.10;;;;;;;14.91;97.53;101180.03;5090028;28;20628;-83
2023/08/23 03:58:03;;;;;;;4.60;4.30;;;;;;;14.84;97.84;101178.78;5091808;28;20220;-80
2023/08/23 04:00:30;;;;;;;4.13;3.73;;;;;;;14.81;98.37;101176.31;5093328;28;20208;-81
2023/08/23 04:02:56;;;;;;;4.60;4.20;;;;;;;14.80;98.98;101188.00;5093466;28;20209;-82
2023/08/23 04:05:23;;;;;;;5.87;5.33;;;;;;;14.78;99.98;101184.56;5089956;28;20232;-81
2023/08/23 04:07:49;;;;;;;4.70;4.37;;;;;;;14.78;100.00;101190.78;5089360;28;20200;-80
2023/08/23 04:10:16;;;;;;;4.83;4.43;;;;;;;14.77;100.00;101190.91;5091658;28;20209;-81
2023/08/23 04:12:43;;;;;;;5.77;4.53;;;;;;;14.73;100.00;101184.88;5092850;28;20201;-80
2023/08/23 04:15:11;;;;;;;6.03;5.30;;;;;;;14.70;100.00;101178.88;5087874;28;20415;-81
2023/08/23 04:17:37;;;;;;;6.13;5.37;;;;;;;14.68;100.00;101183.53;5092709;28;20738;-81
2023/08/23 04:20:04;;;;;;;5.87;5.37;;;;;;;14.65;100.00;101181.94;5086858;28;20201;-83
2023/08/23 04:22:31;;;;;;;6.13;5.53;;;;;;;14.65;100.00;101178.38;5089263;28;20319;-83
2023/08/23 04:24:57;;;;;;;9.10;6.07;;;;;;;14.68;100.00;101183.53;5089739;28;20204;-81
2023/08/23 04:27:24;;;;;;;6.73;5.60;;;;;;;14.70;100.00;101184.25;5090859;28;20235;-80
2023/08/23 04:29:52;;;;;;;7.33;5.13;;;;;;;14.70;100.00;101185.09;5089613;28;20200;-81
2023/08/23 04:32:18;;;;;;;5.77;5.27;;;;;;;14.71;100.00;101183.28;5089321;28;20205;-80
2023/08/23 04:34:45;;;;;;;7.57;6.10;;;;;;;14.72;100.00;101180.50;5091164;28;20200;-81
2023/08/23 04:37:36;;;;;;;9.17;6.10;;;;;;;14.75;100.00;101190.16;5084859;28;20200;-81
2023/08/23 04:40:04;;;;;;;6.90;5.60;;;;;;;14.74;100.00;101186.59;5086218;28;20204;-80
2023/08/23 04:42:31;;;;;;;7.73;5.77;;;;;;;14.76;100.00;101189.19;5092596;28;20734;-80
2023/08/23 04:45:00;;;;;;;6.53;5.93;;;;;;;14.75;100.00;101188.31;5085788;28;20204;-80
2023/08/23 04:47:27;;;;;;;7.17;6.50;;;;;;;14.79;100.00;101188.97;5092151;28;20204;-82
2023/08/23 04:49:54;;;;;;;10.03;6.80;;;;;;;14.80;100.00;101190.69;5094067;28;20204;-81
2023/08/23 04:52:20;;;;;;;7.10;6.00;;;;;;;14.80;100.00;101185.31;5094430;28;20291;-79
2023/08/23 04:54:47;;;;;;;4.90;4.50;;;;;;;14.76;100.00;101184.69;5094396;28;20212;-82
2023/08/23 04:57:13;;;;;;;4.80;4.27;;;;;;;14.73;100.00;101181.34;5093725;28;20246;-81
2023/08/23 04:59:39;;;;;;;6.40;5.83;;;;;;;14.72;100.00;101176.97;5094897;28;20227;-81
2023/08/23 05:02:07;;;;;;;7.67;6.83;;;;;;;14.73;100.00;101184.88;5094808;28;20660;-80
2023/08/23 05:04:34;;;;;;;9.37;7.87;;;;;;;14.76;100.00;101173.09;5094423;28;20211;-81
2023/08/23 05:07:00;;;;;;;9.17;7.00;;;;;;;14.80;100.00;101180.81;5094217;28;20232;-79
2023/08/23 05:09:28;;;;;;;10.83;7.63;;;;;;;14.81;100.00;101181.66;5094643;28;20208;-82
2023/08/23 05:11:55;;;;;;;8.73;7.23;;;;;;;14.81;100.00;101182.53;5094257;28;20240;-81
2023/08/23 05:14:21;;;;;;;8.27;7.43;;;;;;;14.81;100.00;101182.53;5094463;28;20665;-82
2023/08/23 05:16:48;;;;;;;9.03;6.77;;;;;;;14.83;100.00;101182.41;5093627;28;20619;-83
2023/08/23 05:19:16;;;;;;;11.57;7.60;;;;;;;14.85;100.00;101175.97;5093773;28;20231;-80
2023/08/23 05:21:42;;;;;;;7.87;7.07;;;;;;;14.90;100.00;101184.53;5088747;28;20204;-82
2023/08/23 05:24:08;;;;;;;14.97;8.37;;;;;;;14.96;100.00;101185.91;5090472;28;20200;-80
2023/08/23 05:26:35;;;;;;;8.27;7.50;;;;;;;15.05;100.00;101184.41;5085575;28;20223;-82
2023/08/23 05:29:01;;;;;;;8.33;7.37;;;;;;;15.13;100.00;101188.22;5090124;28;20208;-82
2023/08/23 05:31:28;;;;;;;7.90;7.10;;;;;;;15.18;100.00;101195.94;5091702;28;20204;-81
2023/08/23 05:33:54;;;;;;;10.70;7.80;;;;;;;15.24;100.00;101185.56;5089175;28;20200;-81
2023/08/23 05:36:22;;;;;;;7.73;6.93;;;;;;;15.32;100.00;101189.53;5082996;28;20236;-83
2023/08/23 05:38:50;;;;;;;8.53;7.73;;;;;;;15.42;100.00;101187.84;5087684;28;20218;-83
2023/08/23 05:41:17;;;;;;;8.07;7.27;;;;;;;15.50;100.00;101202.44;5090945;28;20221;-82
2023/08/23 05:43:43;;;;;;;10.00;7.27;;;;;;;15.61;100.00;101205.19;5094400;28;20557;-84
2023/08/23 05:46:10;;;;;;;10.73;7.83;;;;;;;15.73;100.00;101194.50;5095584;28;20229;-84
2023/08/23 05:48:36;;;;;;;8.97;7.47;;;;;;;15.85;100.00;101199.78;5094999;28;20214;-82
2023/08/23 05:51:03;;;;;;;11.17;8.17;;;;;;;15.98;100.00;101211.28;5094700;28;20224;-83
2023/08/23 05:53:31;;;;;;;7.67;6.83;;;;;;;16.10;100.00;101206.81;5085110;28;20270;-84
2023/08/23 05:55:57;;;;;;;9.57;8.10;;;;;;;16.22;100.00;101205.00;5091541;28;20227;-83
2023/08/23 05:58:25;;;;;;;8.20;7.50;;;;;;;16.32;100.00;101200.59;5095833;28;20707;-83
2023/08/23 06:00:55;;;;;;;8.67;7.60;;;;;;;16.46;100.00;101213.84;5094129;28;20251;-81
2023/08/23 06:03:21;;;;;;;8.00;7.30;;;;;;;16.57;100.00;101218.34;5093477;28;20230;-83
2023/08/23 06:05:49;;;;;;;7.40;6.70;;;;;;;16.69;100.00;101217.41;5094040;28;20235;-82
2023/08/23 06:08:15;;;;;;;9.00;7.40;;;;;;;16.85;100.00;101208.94;5093945;28;20683;-84
2023/08/23 06:10:43;;;;;;;9.60;7.20;;;;;;;17.02;100.00;101220.06;5093587;28;20575;-82
2023/08/23 06:30:43;;;;;;;10.67;7.13;;;;;;;18.15;99.37;101210.59;5087990;28;20291;-83
2023/08/23 06:33:11;;;;;;;9.70;7.03;;;;;;;18.30;97.98;101203.00;5093519;28;20602;-82
2023/08/23 06:35:38;;;;;;;7.77;7.10;;;;;;;18.40;96.44;101206.63;5093038;28;20238;-83
2023/08/23 06:38:05;;;;;;;7.47;6.77;;;;;;;18.53;96.17;101204.56;5093422;28;20259;-81
2023/08/23 06:40:31;;;;;;;9.57;7.13;;;;;;;18.68;95.26;101207.78;5093186;28;20201;-82
2023/08/23 06:42:58;;;;;;;9.43;6.40;;;;;;;18.81;95.17;101200.28;5093504;28;20237;-83
2023/08/23 06:45:24;;;;;;;7.90;7.10;;;;;;;18.99;95.03;101205.88;5092515;28;20229;-85
2023/08/23 06:47:51;;;;;;;9.17;7.30;;;;;;;19.11;93.67;101201.25;5092282;28;20218;-82
2023/08/23 06:50:19;;;;;;;8.17;7.20;;;;;;;19.23;92.89;101200.13;5092775;28;20207;-83
2023/08/23 06:52:45;;;;;;;8.27;7.30;;;;;;;19.34;92.25;101208.97;5092648;28;20201;-82
2023/08/23 06:55:11;;;;;;;8.33;7.30;;;;;;;19.45;90.92;101217.94;5092326;28;20225;-83
2023/08/23 06:57:39;;;;;;;8.77;7.90;;;;;;;19.54;90.02;101215.25;5091961;28;20216;-83
2023/08/23 07:00:07;;;;;;;10.17;7.90;;;;;;;19.67;89.67;101223.97;5087142;28;20222;-82
2023/08/23 07:02:33;;;;;;;7.70;6.90;;;;;;;19.82;89.46;101218.97;5093404;28;20273;-82
2023/08/23 07:05:00;;;;;;;12.10;7.70;;;;;;;19.94;89.14;101214.28;5092437;28;20197;-82
2023/08/23 07:07:28;;;;;;;10.17;7.90;;;;;;;20.04;87.61;101210.56;5085428;28;20260;-84
2023/08/23 07:09:54;;;;;;;13.77;8.43;;;;;;;20.06;85.62;101213.97;5078440;28;20609;-83
2023/08/23 07:12:21;;;;;;;9.37;8.47;;;;;;;20.08;85.60;101211.97;5096519;28;20213;-83
2023/08/23 07:14:49;;;;;;;9.67;8.77;;;;;;;20.11;84.81;101213.53;5096571;28;20201;-82
2023/08/23 07:17:16;;;;;;;12.70;8.17;;;;;;;20.13;84.25;101213.38;5096111;28;20213;-82
2023/08/23 07:19:42;;;;;;;10.17;8.70;;;;;;;20.16;83.73;101215.81;5096530;28;20593;-83
2023/08/23 07:22:09;;;;;;;12.33;8.63;;;;;;;20.18;83.21;101219.22;5096812;28;20635;-82
2023/08/23 07:24:36;;;;;;;11.73;9.40;;;;;;;20.22;83.39;101218.78;5096526;28;20220;-82
2023/08/23 07:27:03;;;;;;;9.87;8.87;;;;;;;20.26;82.91;101219.34;5093105;28;20218;-84
2023/08/23 07:29:30;;;;;;;11.20;7.80;;;;;;;20.30;82.29;101216.19;5099718;28;20195;-84
2023/08/23 07:31:58;;;;;;;12.33;8.57;;;;;;;20.33;82.12;101223.19;5101311;28;20678;-84
2023/08/23 07:34:26;;;;;;;10.70;8.53;;;;;;;20.35;81.72;101229.28;5104665;28;20210;-86
2023/08/23 07:36:52;;;;;;;12.40;9.05;;;;;;;20.36;81.19;101223.78;5095910;28;20857;-84
2023/08/23 07:39:19;;;;;;;10.23;9.23;;;;;;;20.39;81.25;101226.19;5102549;28;20577;-86
2023/08/23 07:41:46;;;;;;;8.93;7.90;;;;;;;20.42;80.99;101230.47;5103448;28;20217;-82
2023/08/23 07:44:13;;;;;;;9.27;8.27;;;;;;;20.45;80.41;101236.41;5096398;28;20206;-83
2023/08/23 07:46:39;;;;;;;9.60;8.30;;;;;;;20.50;79.58;101240.53;5097082;28;20223;-82
2023/08/23 07:49:06;;;;;;;9.13;8.18;;;;;;;20.58;79.26;101233.41;5088442;28;20203;-82
2023/08/23 07:51:32;;;;;;;10.48;8.13;;;;;;;20.69;78.98;101235.06;5089710;28;20204;-82
2023/08/23 07:53:59;;;;;;;10.93;8.50;;;;;;;20.82;78.42;101232.84;5096403;28;20216;-83
2023/08/23 07:56:25;;;;;;;10.45;8.45;;;;;;;20.98;76.47;101240.34;5096839;28;20242;-83
2023/08/23 07:58:53;;;;;;;9.23;8.05;;;;;;;21.11;75.54;101243.56;5097092;28;20227;-82
2023/08/23 08:01:20;;;;;;;14.02;7.93;;;;;;;21.25;75.68;101232.25;5088916;28;20210;-82
2023/08/23 08:03:46;;;;;;;9.52;8.52;;;;;;;21.39;74.95;101236.28;5094430;28;20207;-82
2023/08/23 08:06:13;;;;;;;9.32;7.95;;;;;;;21.54;74.29;101236.59;5095867;28;20224;-82
2023/08/23 08:08:42;;;;;;;8.75;7.95;;;;;;;21.68;73.52;101238.78;5095896;28;20203;-83
2023/08/23 08:11:10;;;;;;;9.32;8.18;;;;;;;21.83;72.64;101231.81;5094369;28;20200;-83
2023/08/23 08:13:36;;;;;;;10.02;8.10;;;;;;;21.97;72.69;101244.81;5094605;28;20204;-83
2023/08/23 08:16:09;;;;;;;10.07;7.78;;;;;;;22.15;71.60;101237.56;5095462;28;20220;-81
2023/08/23 08:18:35;;;;;;;9.43;7.28;;;;;;;22.29;70.99;101235.25;5094580;28;20212;-82
2023/08/23 08:21:02;;;;;;;10.20;7.72;;;;;;;22.44;69.61;101236.38;5096019;28;20215;-85
2023/08/23 08:23:29;;;;;;;9.15;8.15;;;;;;;22.55;69.47;101238.00;5096769;28;20206;-84
2023/08/23 08:25:56;;;;;;;8.18;7.18;;;;;;;22.69;69.07;101246.38;5096493;28;20228;-82
2023/08/23 08:28:22;;;;;;;10.77;7.88;;;;;;;22.79;68.58;101236.28;5096032;28;20204;-81
2023/08/23 08:30:49;;;;;;;9.30;8.20;;;;;;;22.90;67.81;101239.75;5098357;28;20703;-82
2023/08/23 08:33:18;;;;;;;10.98;7.45;;;;;;;23.01;67.08;101234.00;5095237;28;20219;-81
2023/08/23 08:35:44;;;;;;;8.10;7.20;;;;;;;23.12;66.42;101230.97;5095826;28;20322;-82
2023/08/23 08:38:11;;;;;;;10.85;8.25;;;;;;;23.22;65.75;101242.59;5094487;28;20217;-81
2023/08/23 08:40:38;;;;;;;10.05;8.05;;;;;;;23.33;64.57;101244.13;5097255;28;20196;-82
2023/08/23 08:43:05;;;;;;;9.40;7.70;;;;;;;23.42;65.16;101244.00;5098081;28;20215;-83
2023/08/23 08:45:32;;;;;;;8.30;7.45;;;;;;;23.55;64.24;101243.56;5097869;28;20235;-84
2023/08/23 08:47:59;;;;;;;9.00;7.13;;;;;;;23.71;63.68;101253.59;5096851;28;20196;-83
2023/08/23 08:50:31;;;;;;;7.95;7.15;;;;;;;23.79;63.00;101240.03;5096292;28;20198;-84
2023/08/23 08:53:00;;;;;;;9.82;7.25;;;;;;;23.89;62.53;101247.00;5095659;28;20202;-82
2023/08/23 08:55:28;;;;;;;11.40;6.93;;;;;;;24.01;62.57;101244.78;5096569;28;20230;-81
2023/08/23 08:57:55;;;;;;;9.82;7.00;;;;;;;24.17;61.53;101246.66;5096477;28;20203;-82
2023/08/23 09:00:25;;;;;;;8.32;7.20;;;;;;;24.30;61.29;101247.03;5095877;28;20703;-82
2023/08/23 09:02:53;;;;;;;8.75;7.47;;;;;;;24.46;60.59;101252.44;5097137;28;20211;-82
2023/08/23 09:05:21;;;;;;;8.30;7.38;;;;;;;24.60;59.87;101253.59;5096273;28;20223;-82
2023/08/23 09:07:50;;;;;;;9.38;7.20;;;;;;;24.73;59.67;101240.28;5097136;28;20199;-83
2023/08/23 09:10:17;;;;;;;8.60;6.40;;;;;;;24.84;59.09;101237.19;5096329;28;20203;-84
2023/08/23 09:12:43;;;;;;;12.75;7.25;;;;;;;24.83;57.99;101242.81;5096987;28;20216;-84
2023/08/23 09:15:10;;;;;;;7.75;6.45;;;;;;;24.79;57.46;101244.19;5096197;28;20239;-82
2023/08/23 09:17:38;;;;;;;9.15;6.40;;;;;;;24.80;57.87;101246.75;5096505;28;20200;-83
2023/08/23 09:20:08;;;;;;;8.65;6.07;;;;;;;24.82;58.64;101239.25;5095378;28;20228;-82
2023/08/23 09:22:35;;;;;;;10.13;6.95;;;;;;;24.87;58.63;101238.72;5095376;28;20625;-82
2023/08/23 09:25:03;;;;;;;6.30;5.65;;;;;;;24.93;58.92;101240.72;5095168;28;20219;-82
2023/08/23 09:27:30;;;;;;;7.50;5.75;;;;;;;24.92;58.13;101244.47;5095407;28;20219;-82
2023/08/23 09:29:59;;;;;;;8.52;6.32;;;;;;;24.86;57.09;101240.59;5095184;28;20200;-82
2023/08/23 09:32:26;;;;;;;8.50;5.68;;;;;;;24.83;57.98;101237.38;5095515;28;20212;-84
2023/08/23 09:34:52;;;;;;;8.35;5.82;;;;;;;24.81;57.92;101240.25;5094864;28;20688;-83
2023/08/23 09:37:19;;;;;;;9.43;6.50;;;;;;;24.83;58.17;101240.94;5094692;28;20560;-84
2023/08/23 09:39:45;;;;;;;9.20;6.22;;;;;;;24.96;58.06;101236.84;5095720;28;20220;-84
2023/08/23 09:42:15;;;;;;;8.25;6.15;;;;;;;25.10;56.96;101236.09;5095177;28;20214;-83
2023/08/23 09:44:45;;;;;;;5.95;5.35;;;;;;;25.20;55.95;101234.84;5095548;28;20696;-84
2023/08/23 09:47:15;;;;;;;7.38;4.95;;;;;;;25.28;54.49;101236.69;5095099;28;20204;-83
2023/08/23 09:49:43;;;;;;;6.10;5.13;;;;;;;25.35;54.46;101240.41;5095432;28;20687;-83
2023/08/23 09:52:10;;;;;;;6.85;4.68;;;;;;;25.41;53.98;101231.50;5096236;28;20207;-82
2023/08/23 09:54:45;;;;;;;5.53;4.80;;;;;;;25.52;53.23;101233.81;5101913;28;20207;-84
2023/08/23 09:57:14;;;;;;;8.00;5.60;;;;;;;25.62;54.17;101236.31;5103413;28;20192;-85
2023/08/23 09:59:42;;;;;;;8.25;5.70;;;;;;;25.64;53.64;101239.72;5103762;28;20223;-84
2023/08/23 10:02:10;;;;;;;8.35;5.35;;;;;;;25.60;53.62;101235.66;5100597;28;20210;-83
2023/08/23 10:04:40;;;;;;;5.38;4.75;;;;;;;25.55;53.92;101241.66;5095123;28;20212;-82
2023/08/23 10:07:07;;;;;;;9.32;4.80;;;;;;;25.50;53.69;101241.31;5094831;28;20224;-82
2023/08/23 10:09:34;;;;;;;7.07;4.05;;;;;;;25.48;52.87;101228.91;5095853;28;20230;-83
2023/08/23 10:12:02;;;;;;;6.18;4.30;;;;;;;25.44;52.90;101227.59;5087758;28;20205;-83
2023/08/23 10:14:31;;;;;;;10.90;4.35;;;;;;;25.49;52.76;101225.13;5089632;28;20215;-83
2023/08/23 10:16:58;;;;;;;5.20;4.13;;;;;;;25.58;52.69;101224.94;5090804;28;20220;-84
2023/08/23 10:19:25;;;;;;;8.80;4.57;;;;;;;25.63;53.22;101218.94;5095535;28;20230;-84
2023/08/23 10:21:51;;;;;;;5.57;4.07;;;;;;;25.68;53.26;101224.69;5095832;28;20212;-83
2023/08/23 10:24:18;;;;;;;6.60;4.35;;;;;;;25.75;52.35;101220.22;5095600;28;20208;-84
2023/08/23 10:26:46;;;;;;;4.85;3.45;;;;;;;25.85;52.24;101228.16;5094442;28;20216;-84
2023/08/23 10:29:13;;;;;;;4.57;3.47;;;;;;;25.88;51.42;101217.72;5088719;28;20208;-85
2023/08/23 10:31:52;;;;;;;4.15;2.67;;;;;;;25.94;50.49;101217.00;5096219;28;20214;-83
2023/08/23 10:34:24;;;;;;;4.20;2.38;;;;;;;26.01;50.32;101214.38;5091012;28;20207;-83
2023/08/23 10:36:50;;;;;;;3.33;2.80;;;;;;;26.13;49.61;101206.59;5092424;28;20228;-84
2023/08/23 10:39:17;;;;;;;3.88;2.75;;;;;;;26.23;49.47;101208.03;5093178;28;20240;-85
2023/08/23 10:41:43;;;;;;;5.30;2.90;;;;;;;26.34;49.56;101198.56;5093384;28;20211;-83
2023/08/23 10:44:15;;;;;;;3.13;2.25;;;;;;;26.45;49.51;101200.00;5097598;28;20200;-83
2023/08/23 10:46:45;;;;;;;3.05;2.58;;;;;;;26.58;49.26;101211.09;5097234;28;20714;-83
2023/08/23 10:49:13;;;;;;;4.10;2.47;;;;;;;26.71;49.16;101199.50;5096663;28;20200;-83
2023/08/23 10:51:41;;;;;;;4.65;3.35;;;;;;;26.74;48.18;101194.53;5097098;28;20232;-83
2023/08/23 10:54:11;;;;;;;5.32;2.60;;;;;;;26.75;47.68;101193.50;5093537;28;20223;-83
2023/08/23 10:56:37;;;;;;;5.72;2.35;;;;;;;26.73;47.14;101194.72;5098506;28;20222;-84
2023/08/23 10:59:06;;;;;;;4.55;2.30;;;;;;;26.68;47.37;101198.03;5094943;28;20597;-84
2023/08/23 11:01:33;;;;;;;3.63;2.33;;;;;;;26.62;47.13;101202.34;5098842;28;20223;-82
2023/08/23 11:04:03;;;;;;;3.92;2.40;;;;;;;26.61;47.84;101210.75;5098277;28;20204;-84
2023/08/23 11:06:29;;;;;;;4.22;2.60;;;;;;;26.61;47.65;101208.84;5088482;28;20314;-84
2023/08/23 11:08:57;;;;;;;5.40;2.75;;;;;;;26.62;47.87;101199.63;5096711;28;20207;-83
2023/08/23 11:11:28;;;;;;;3.10;2.45;;;;;;;26.62;48.21;101204.25;5088597;28;20211;-84
2023/08/23 11:13:54;;;;;;;2.63;2.20;;;;;;;26.62;48.47;101199.63;5090815;28;20230;-85
2023/08/23 11:16:22;;;;;;;5.20;2.78;;;;;;;26.64;48.21;101204.91;5092050;28;20287;-87
2023/08/23 11:18:49;;;;;;;5.13;3.13;;;;;;;26.70;47.79;101197.81;5094620;28;20196;-84
2023/08/23 11:21:17;;;;;;;3.83;2.90;;;;;;;26.76;46.82;101188.88;5095964;28;20228;-86
2023/08/23 11:23:43;;;;;;;4.93;2.70;;;;;;;26.75;47.81;101196.22;5096064;28;20222;-85
2023/08/23 11:26:09;;;;;;;4.53;2.90;;;;;;;26.75;47.42;101198.09;5093811;28;20941;-84
2023/08/23 11:28:36;;;;;;;3.05;2.50;;;;;;;26.79;47.41;101193.97;5097837;28;20674;-83
2023/08/23 11:31:06;;;;;;;4.32;2.10;;;;;;;26.88;48.19;101195.53;5094584;28;20201;-84
2023/08/23 11:33:33;;;;;;;4.97;3.42;;;;;;;26.93;47.07;101202.13;5092461;28;20208;-84
2023/08/23 11:35:59;;;;;;;3.33;2.60;;;;;;;26.95;46.85;101193.78;5094494;28;20306;-83
2023/08/23 11:38:29;;;;;;;5.93;3.00;;;;;;;27.00;46.81;101196.81;5094167;28;20208;-84
2023/08/23 11:40:55;;;;;;;3.03;2.47;;;;;;;26.96;46.48;101184.56;5094409;28;20232;-83